Time;durP1;ratioP1;P1;durP2;ratioP2;P2;SDS_P1;SDS_P2;PMS_P1;PMS_P2;Temp;Humidity;BMP_temperature;BMP_pressure;BME280_temperature;BME280_humidity;BME280_pressure;Samples;Min_cycle;Max_cycle;Signal;HPM_P1;HPM_P2
2021/12/31 00:00:00;;;;;;;5.13;3.50;;;;;;;9.04;73.94;102082.78;4894146;29;20518;-93
2021/12/31 00:02:59;;;;;;;5.43;3.35;;;;;;;9.35;73.72;102138.25;4881763;29;20104;-94
2021/12/31 00:05:24;;;;;;;4.25;3.40;;;;;;;9.32;73.81;102127.59;4881472;29;20025;-92
2021/12/31 00:08:10;;;;;;;4.68;3.47;;;;;;;9.38;73.74;102146.34;4866054;29;20044;-92
2021/12/31 00:10:59;;;;;;;6.18;3.53;;;;;;;9.35;73.83;102143.47;4865199;29;20037;-91
2021/12/31 00:13:26;;;;;;;4.25;3.10;;;;;;;9.29;73.56;102143.00;4865955;29;20530;-90
2021/12/31 00:15:53;;;;;;;4.63;3.25;;;;;;;9.08;73.84;102110.91;4879905;29;20119;-90
2021/12/31 00:18:24;;;;;;;5.80;3.35;;;;;;;9.05;73.54;102100.22;4876197;29;20044;-91
2021/12/31 00:21:03;;;;;;;4.80;3.42;;;;;;;9.24;73.82;102131.28;4893074;29;20024;-89
2021/12/31 00:23:29;;;;;;;3.80;3.10;;;;;;;9.12;73.45;102104.22;4888024;29;20043;-92
2021/12/31 00:26:02;;;;;;;4.90;3.35;;;;;;;9.14;73.35;102100.97;4893087;29;20033;-91
2021/12/31 00:28:38;;;;;;;4.65;3.40;;;;;;;9.20;73.26;102113.56;4893581;29;20411;-91
2021/12/31 00:31:05;;;;;;;5.28;3.67;;;;;;;9.26;73.29;102128.81;4879679;29;20041;-90
2021/12/31 00:33:33;;;;;;;4.75;3.33;;;;;;;8.85;73.71;102067.34;4880735;29;20063;-91
2021/12/31 00:36:00;;;;;;;4.07;3.20;;;;;;;9.17;73.77;102128.97;4865382;29;20515;-91
2021/12/31 00:38:45;;;;;;;4.78;3.53;;;;;;;9.32;73.47;102140.63;4880795;29;20115;-91
2021/12/31 00:41:34;;;;;;;4.90;3.30;;;;;;;9.34;73.61;102151.19;4897155;29;20113;-91
2021/12/31 00:44:27;;;;;;;5.22;3.10;;;;;;;9.32;73.69;102148.47;4865422;29;20036;-90
2021/12/31 00:47:04;;;;;;;4.45;3.15;;;;;;;9.33;73.45;102150.31;4865183;29;20124;-90
2021/12/31 00:49:38;;;;;;;4.43;3.10;;;;;;;9.14;73.63;102128.72;4864717;29;20029;-92
2021/12/31 00:52:18;;;;;;;4.60;3.42;;;;;;;9.26;73.73;102158.38;4880955;29;20039;-94
2021/12/31 00:58:07;;;;;;;4.03;3.22;;;;;;;9.09;73.76;102097.06;4897180;29;20055;-93
2021/12/31 01:04:19;;;;;;;4.25;3.10;;;;;;;9.31;73.47;102140.50;4894654;29;20065;-91
2021/12/31 01:07:04;;;;;;;4.18;3.00;;;;;;;9.28;73.45;102140.28;4894012;29;20096;-93
2021/12/31 01:09:45;;;;;;;5.45;3.38;;;;;;;9.31;73.46;102141.44;4865976;29;20033;-93
2021/12/31 01:12:33;;;;;;;4.32;3.60;;;;;;;9.28;73.59;102130.75;4882953;29;20056;-92
2021/12/31 01:15:39;;;;;;;4.45;3.33;;;;;;;9.29;73.41;102124.75;4900116;29;20092;-93
2021/12/31 01:18:19;;;;;;;4.30;3.35;;;;;;;9.23;73.48;102115.50;4899633;29;20483;-92
2021/12/31 01:20:57;;;;;;;3.90;3.08;;;;;;;9.10;73.32;102101.50;4901997;29;20048;-92
2021/12/31 01:23:44;;;;;;;4.00;3.28;;;;;;;9.27;73.52;102133.22;4881312;29;20029;-92
2021/12/31 01:26:21;;;;;;;4.45;3.05;;;;;;;9.19;73.52;102118.69;4869399;29;20120;-92
2021/12/31 01:29:09;;;;;;;4.72;3.50;;;;;;;9.24;73.83;102130.38;4866185;29;20124;-92
2021/12/31 01:31:34;;;;;;;4.43;3.15;;;;;;;9.05;73.63;102094.09;4882410;29;20037;-90
2021/12/31 01:34:03;;;;;;;3.05;2.70;;;;;;;9.02;73.49;102086.94;4868202;29;20096;-90
2021/12/31 01:36:36;;;;;;;3.95;3.05;;;;;;;9.22;73.44;102127.63;4900551;29;20044;-92
2021/12/31 01:39:07;;;;;;;4.78;3.20;;;;;;;9.16;73.57;102132.34;4894756;29;20037;-91
2021/12/31 01:41:44;;;;;;;5.05;3.17;;;;;;;9.16;73.71;102121.94;4880693;29;20049;-91
2021/12/31 01:44:27;;;;;;;;;;;;;;;9.22;73.75;102137.16;4881041;29;20033;-91
2021/12/31 01:47:09;;;;;;;5.70;3.08;;;;;;;8.85;73.76;102076.84;4895880;29;19918;-91
2021/12/31 01:49:55;;;;;;;5.53;3.20;;;;;;;9.26;73.54;102141.84;4881112;29;20037;-91
2021/12/31 01:52:24;;;;;;;3.78;3.20;;;;;;;9.15;73.81;102135.75;4866467;29;20491;-91
2021/12/31 01:54:53;;;;;;;4.30;2.97;;;;;;;9.21;73.50;102132.72;4880529;29;20089;-92
2021/12/31 01:57:55;;;;;;;3.97;3.00;;;;;;;9.15;73.64;102131.44;4865007;29;20124;-92
2021/12/31 02:00:49;;;;;;;4.25;3.20;;;;;;;9.23;73.61;102133.75;4880260;29;20048;-92
2021/12/31 02:03:54;;;;;;;4.22;3.20;;;;;;;9.21;73.61;102124.91;4879903;29;20041;-92
2021/12/31 02:06:39;;;;;;;4.40;3.08;;;;;;;9.20;73.70;102131.81;4881490;29;20069;-92
2021/12/31 02:12:27;;;;;;;4.05;2.85;;;;;;;8.82;73.38;102056.66;4880380;29;20052;-92
2021/12/31 02:15:43;;;;;;;4.72;3.25;;;;;;;9.22;73.67;102117.22;4863838;29;20032;-93
2021/12/31 02:21:35;;;;;;;4.93;2.90;;;;;;;9.20;73.43;102118.78;4881184;29;20045;-91
2021/12/31 02:24:06;;;;;;;4.45;3.08;;;;;;;8.98;73.24;102089.19;4859089;29;20049;-90
2021/12/31 02:26:33;;;;;;;4.97;3.03;;;;;;;9.20;73.35;102131.81;4862309;29;20632;-90
2021/12/31 02:29:35;;;;;;;4.70;3.10;;;;;;;9.26;73.20;102128.81;4876523;29;20057;-91
2021/12/31 02:32:05;;;;;;;3.15;2.83;;;;;;;9.21;73.38;102114.47;4861376;29;20507;-91
2021/12/31 02:34:51;;;;;;;3.38;2.80;;;;;;;9.24;73.01;102117.34;4863670;29;20032;-91
2021/12/31 02:37:19;;;;;;;7.68;2.97;;;;;;;9.00;73.38;102095.44;4879668;29;20037;-91
2021/12/31 02:39:45;;;;;;;3.60;2.80;;;;;;;8.92;73.70;102073.94;4894227;29;20113;-91
2021/12/31 02:42:11;;;;;;;3.95;2.80;;;;;;;9.21;73.12;102104.97;4902636;29;20029;-92
2021/12/31 02:44:37;;;;;;;3.83;2.70;;;;;;;9.14;73.07;102094.81;4902790;29;20036;-91
2021/12/31 02:47:05;;;;;;;4.78;3.08;;;;;;;9.02;73.36;102084.34;4895996;29;20073;-92
2021/12/31 02:49:39;;;;;;;3.53;2.67;;;;;;;9.16;73.49;102093.25;4864182;29;20041;-91
2021/12/31 02:52:23;;;;;;;4.00;2.97;;;;;;;9.16;73.26;102098.47;4864171;29;20033;-90
2021/12/31 02:54:53;;;;;;;4.45;2.83;;;;;;;9.13;73.51;102080.91;4879369;29;20032;-92
2021/12/31 02:57:21;;;;;;;3.15;2.63;;;;;;;9.15;73.38;102083.63;4863818;29;20036;-90
2021/12/31 02:59:48;;;;;;;3.58;2.80;;;;;;;9.11;73.49;102089.38;4863625;29;20036;-91
2021/12/31 03:05:36;;;;;;;3.33;2.60;;;;;;;9.09;73.43;102099.69;4880100;29;20048;-91
2021/12/31 03:08:36;;;;;;;4.82;2.90;;;;;;;9.04;73.77;102107.88;4863687;29;20554;-91
2021/12/31 03:11:07;;;;;;;3.33;2.67;;;;;;;9.06;73.49;102117.69;4863232;29;20156;-92
2021/12/31 03:17:06;;;;;;;3.28;2.75;;;;;;;9.00;73.24;102111.06;4879830;29;20122;-92
2021/12/31 03:19:43;;;;;;;3.88;2.70;;;;;;;9.07;73.55;102136.81;4878950;29;20029;-93
2021/12/31 03:22:12;;;;;;;3.45;2.80;;;;;;;8.95;73.21;102108.06;4878908;29;20043;-92
2021/12/31 03:24:41;;;;;;;3.72;2.95;;;;;;;8.89;73.40;102113.69;4880006;29;20040;-92
2021/12/31 03:27:08;;;;;;;2.95;2.53;;;;;;;9.02;73.57;102136.44;4878536;29;20037;-91
2021/12/31 03:29:35;;;;;;;3.72;2.83;;;;;;;8.98;73.26;102121.34;4878639;29;20025;-91
2021/12/31 03:32:04;;;;;;;5.30;2.70;;;;;;;8.74;73.17;102074.28;4878763;29;20111;-91
2021/12/31 03:34:49;;;;;;;2.97;2.45;;;;;;;9.12;73.17;102143.31;4878654;29;20025;-91
2021/12/31 03:37:16;;;;;;;4.10;2.70;;;;;;;8.99;73.10;102125.75;4879536;29;20040;-92
2021/12/31 03:39:41;;;;;;;3.47;2.53;;;;;;;9.05;73.41;102138.38;4862378;29;20049;-92
2021/12/31 03:42:16;;;;;;;3.75;2.80;;;;;;;9.03;73.13;102138.25;4878483;29;20527;-91
2021/12/31 03:44:47;;;;;;;3.80;2.38;;;;;;;8.92;72.89;102108.72;4878993;29;20072;-91
2021/12/31 03:47:15;;;;;;;3.10;2.65;;;;;;;8.80;73.03;102105.09;4877728;29;20029;-92
2021/12/31 03:49:52;;;;;;;3.30;2.50;;;;;;;8.75;73.20;102102.13;4862820;29;20192;-91
2021/12/31 03:52:54;;;;;;;3.75;2.72;;;;;;;9.06;73.44;102168.84;4862825;29;20033;-90
2021/12/31 03:55:46;;;;;;;3.10;2.47;;;;;;;9.08;73.22;102177.72;4879304;29;20172;-91
2021/12/31 03:58:32;;;;;;;4.22;2.70;;;;;;;9.19;72.88;102170.81;4878656;29;20547;-90
2021/12/31 04:00:58;;;;;;;3.65;2.42;;;;;;;9.04;73.08;102167.81;4862506;29;20124;-90
2021/12/31 04:03:40;;;;;;;3.10;2.55;;;;;;;8.90;73.31;102159.78;4862447;29;20312;-90
2021/12/31 04:06:09;;;;;;;3.53;2.50;;;;;;;8.99;73.18;102166.53;4862271;29;20075;-91
2021/12/31 04:08:48;;;;;;;3.15;2.55;;;;;;;9.02;73.46;102192.88;4878121;29;20033;-92
2021/12/31 04:11:18;;;;;;;3.65;2.50;;;;;;;8.88;73.03;102166.56;4867199;29;20065;-92
2021/12/31 04:13:46;;;;;;;3.33;2.60;;;;;;;8.81;72.95;102148.63;4878187;29;20033;-91
2021/12/31 04:16:20;;;;;;;6.55;2.60;;;;;;;8.98;73.36;102172.56;4862462;29;20025;-90
2021/12/31 04:18:48;;;;;;;3.33;2.50;;;;;;;9.10;73.03;102187.50;4862193;29;20105;-91
2021/12/31 04:21:16;;;;;;;3.05;2.50;;;;;;;8.86;72.74;102155.09;4879885;29;20430;-91
2021/12/31 04:23:50;;;;;;;3.63;2.70;;;;;;;8.94;72.78;102154.03;4883895;29;20065;-93
2021/12/31 04:26:32;;;;;;;3.63;2.63;;;;;;;8.91;72.86;102142.44;4868507;29;20036;-94
2021/12/31 04:28:57;;;;;;;3.58;2.67;;;;;;;9.04;72.62;102157.41;4863358;29;20120;-87
2021/12/31 04:31:25;;;;;;;3.28;2.50;;;;;;;8.74;72.57;102105.53;4877963;29;20060;-91
2021/12/31 04:34:08;;;;;;;4.60;3.05;;;;;;;9.04;72.86;102173.03;4878165;29;20595;-93
2021/12/31 04:36:50;;;;;;;3.40;2.38;;;;;;;9.13;72.50;102195.56;4878204;29;20037;-92
2021/12/31 04:39:15;;;;;;;3.30;2.65;;;;;;;8.98;73.11;102180.38;4862128;29;20134;-93
2021/12/31 04:42:13;;;;;;;4.13;2.97;;;;;;;9.04;73.00;102186.06;4881785;29;20550;-92
2021/12/31 04:44:39;;;;;;;4.40;2.95;;;;;;;9.10;72.57;102176.16;4869715;29;20048;-92
2021/12/31 04:47:16;;;;;;;3.05;2.47;;;;;;;9.00;72.69;102184.03;4869336;29;20029;-91
2021/12/31 04:49:44;;;;;;;;;;;;;;;9.05;72.88;102187.91;4884844;29;20059;-90
2021/12/31 04:52:09;;;;;;;3.42;2.50;;;;;;;8.85;73.11;102173.22;4884486;29;19916;-90
2021/12/31 04:54:40;;;;;;;3.80;2.80;;;;;;;8.62;73.02;102121.81;4883942;29;20037;-91
2021/12/31 04:57:08;;;;;;;6.28;3.00;;;;;;;8.94;72.78;102187.91;4868884;29;20043;-93
2021/12/31 04:59:38;;;;;;;4.85;2.92;;;;;;;8.84;72.74;102200.94;4883996;29;20088;-90
2021/12/31 05:02:15;;;;;;;4.07;2.72;;;;;;;8.81;73.27;102198.09;4884636;29;20032;-91
2021/12/31 05:04:43;;;;;;;3.45;2.53;;;;;;;8.86;72.78;102193.28;4884517;29;20044;-91
2021/12/31 05:10:33;;;;;;;3.55;2.60;;;;;;;8.58;72.98;102166.63;4895137;29;20039;-89
2021/12/31 05:13:03;;;;;;;3.28;2.72;;;;;;;9.00;72.75;102234.44;4884295;29;20092;-92
2021/12/31 05:15:52;;;;;;;3.05;2.67;;;;;;;9.06;72.58;102234.00;4868714;29;20036;-92
2021/12/31 05:18:23;;;;;;;3.33;2.60;;;;;;;8.81;73.08;102210.22;4883388;29;20036;-92
2021/12/31 05:24:14;;;;;;;3.10;2.60;;;;;;;8.91;72.44;102208.53;4901339;29;20043;-93
2021/12/31 05:26:45;;;;;;;3.55;2.55;;;;;;;8.64;72.50;102160.22;4869105;29;20065;-91
2021/12/31 05:29:18;;;;;;;2.58;2.38;;;;;;;8.97;72.77;102234.16;4868597;29;20028;-90
2021/12/31 05:31:54;;;;;;;3.75;2.90;;;;;;;8.84;72.68;102200.94;4883672;29;20073;-92
2021/12/31 05:34:23;;;;;;;3.42;2.67;;;;;;;8.99;72.59;102213.44;4868641;29;20037;-93
2021/12/31 05:37:09;;;;;;;4.15;2.95;;;;;;;9.04;72.42;102220.88;4884246;29;20028;-93
2021/12/31 05:39:35;;;;;;;3.75;2.80;;;;;;;8.99;72.56;102221.25;4881994;29;20057;-91
2021/12/31 05:42:19;;;;;;;3.17;2.60;;;;;;;8.82;72.93;102204.22;4868375;29;20084;-92
2021/12/31 05:45:14;;;;;;;3.22;2.60;;;;;;;8.90;73.11;102227.53;4877483;29;20115;-91
2021/12/31 05:48:06;;;;;;;3.70;2.55;;;;;;;8.95;72.88;102231.44;4883722;29;20021;-93
2021/12/31 05:51:01;;;;;;;4.28;2.92;;;;;;;8.88;73.27;102244.72;4899323;29;20039;-91
2021/12/31 05:53:29;;;;;;;3.83;2.60;;;;;;;8.53;73.62;102215.69;4899169;29;20028;-90
2021/12/31 05:56:00;;;;;;;3.85;2.88;;;;;;;8.71;73.13;102229.34;4883552;29;20036;-91
2021/12/31 05:58:42;;;;;;;4.18;2.75;;;;;;;8.70;73.38;102244.09;4867749;29;20430;-93
2021/12/31 06:01:34;;;;;;;3.25;2.55;;;;;;;8.83;73.36;102282.50;4871097;29;20092;-93
2021/12/31 06:10:43;;;;;;;2.80;2.38;;;;;;;8.85;73.01;102251.38;4900261;29;20108;-92
2021/12/31 06:13:25;;;;;;;5.03;2.70;;;;;;;8.81;72.70;102239.78;4867830;29;20021;-92
2021/12/31 06:15:58;;;;;;;4.00;2.97;;;;;;;8.95;72.42;102269.59;4865953;29;20041;-95
2021/12/31 06:18:26;;;;;;;3.55;2.75;;;;;;;8.89;72.40;102277.81;4865240;29;20461;-94
2021/12/31 06:21:14;;;;;;;3.63;2.63;;;;;;;8.90;72.92;102277.03;4868524;29;20043;-94
2021/12/31 06:23:42;;;;;;;3.50;2.42;;;;;;;8.60;73.00;102233.66;4899827;29;20052;-91
2021/12/31 06:26:18;;;;;;;3.30;2.50;;;;;;;8.75;73.40;102279.22;4883226;29;20045;-92
2021/12/31 06:28:48;;;;;;;3.03;2.35;;;;;;;8.90;73.18;102277.03;4883280;29;20036;-94
2021/12/31 06:31:22;;;;;;;3.17;2.70;;;;;;;8.75;73.02;102268.81;4870858;29;20422;-95
2021/12/31 06:34:00;;;;;;;3.88;2.80;;;;;;;8.94;72.70;102283.41;4884475;29;20028;-93
2021/12/31 06:36:32;;;;;;;4.00;2.80;;;;;;;8.76;72.75;102246.28;4879532;29;20127;-95
2021/12/31 06:39:04;;;;;;;3.28;2.70;;;;;;;8.31;72.56;102176.47;4859092;29;20033;-92
2021/12/31 06:41:46;;;;;;;3.95;2.80;;;;;;;8.83;72.93;102266.88;4883038;29;20131;-92
2021/12/31 06:44:37;;;;;;;5.07;3.47;;;;;;;8.90;72.84;102261.38;4882008;29;20079;-90
2021/12/31 06:47:06;;;;;;;4.75;3.20;;;;;;;8.79;72.96;102250.88;4882580;29;20582;-90
2021/12/31 06:49:32;;;;;;;5.05;3.40;;;;;;;8.74;73.01;102259.19;4881065;29;20491;-90
2021/12/31 06:51:59;;;;;;;5.65;3.20;;;;;;;8.68;72.83;102242.13;4883181;29;20495;-89
2021/12/31 06:54:26;;;;;;;5.13;3.30;;;;;;;8.59;73.01;102238.72;4866482;29;20037;-91
2021/12/31 06:56:53;;;;;;;4.72;3.28;;;;;;;8.71;73.03;102253.72;4897132;29;20056;-89
2021/12/31 06:59:52;;;;;;;4.38;2.95;;;;;;;8.75;73.33;102276.63;4881530;29;20170;-91
2021/12/31 07:02:19;;;;;;;3.92;3.20;;;;;;;8.49;73.29;102230.13;4880513;29;20443;-91
2021/12/31 07:04:54;;;;;;;4.90;3.38;;;;;;;8.55;72.79;102212.44;4866329;29;20043;-92
2021/12/31 07:07:39;;;;;;;4.60;3.40;;;;;;;8.62;72.99;102223.38;4872863;29;20043;-90
2021/12/31 07:10:31;;;;;;;3.67;3.03;;;;;;;8.66;73.79;102255.03;4877768;29;20033;-90
2021/12/31 07:13:04;;;;;;;4.68;3.15;;;;;;;8.18;73.80;102176.19;4869859;29;20631;-91
2021/12/31 07:15:33;;;;;;;4.28;3.13;;;;;;;8.51;73.77;102218.16;4866729;29;20033;-91
2021/12/31 07:18:05;;;;;;;4.45;3.15;;;;;;;8.39;73.45;102190.13;4879432;29;20029;-91
2021/12/31 07:20:30;;;;;;;4.22;3.00;;;;;;;8.28;74.03;102204.84;4868434;29;20039;-94
2021/12/31 07:23:09;;;;;;;3.88;2.85;;;;;;;8.68;73.88;102257.75;4864664;29;20021;-91
2021/12/31 07:25:35;;;;;;;4.82;3.13;;;;;;;8.48;74.85;102256.94;4880626;29;20091;-91
2021/12/31 07:28:25;;;;;;;;;;;;;;;8.54;74.55;102269.59;4895079;29;20039;-92
2021/12/31 07:30:51;;;;;;;5.32;2.80;;;;;;;8.10;74.69;102212.84;4879535;29;19916;-90
2021/12/31 07:33:21;;;;;;;4.07;2.85;;;;;;;8.61;74.46;102271.03;4865375;29;20032;-91
2021/12/31 07:35:47;;;;;;;3.42;2.80;;;;;;;8.55;74.33;102266.19;4881072;29;20051;-89
2021/12/31 07:38:24;;;;;;;;;;;;;;;8.59;74.22;102264.75;4897273;29;20033;-90
2021/12/31 07:40:59;;;;;;;3.70;2.85;;;;;;;8.56;74.33;102266.31;4863862;29;19955;-91
2021/12/31 07:43:25;;;;;;;4.50;2.97;;;;;;;8.31;75.22;102264.94;4862362;29;20025;-89
2021/12/31 07:45:54;;;;;;;3.50;2.80;;;;;;;8.28;75.39;102255.19;4862844;29;20040;-90
2021/12/31 07:48:21;;;;;;;5.45;3.10;;;;;;;8.14;75.49;102250.47;4876260;29;20032;-86
2021/12/31 07:50:47;;;;;;;3.30;2.67;;;;;;;8.32;74.65;102246.88;4879402;29;20048;-87
2021/12/31 07:53:13;;;;;;;4.10;2.70;;;;;;;8.19;74.42;102212.75;4881754;29;20463;-86
2021/12/31 07:55:38;;;;;;;6.65;3.22;;;;;;;8.45;74.14;102235.88;4878700;29;20111;-87
2021/12/31 07:58:07;;;;;;;3.88;2.95;;;;;;;8.45;74.79;102269.72;4880184;29;20064;-88
2021/12/31 08:00:33;;;;;;;3.70;2.80;;;;;;;8.36;74.63;102248.97;4879415;29;20052;-87
2021/12/31 08:03:00;;;;;;;3.53;2.88;;;;;;;8.16;74.92;102220.28;4878439;29;20039;-87
2021/12/31 08:05:27;;;;;;;4.40;3.15;;;;;;;8.37;75.07;102249.88;4896618;29;20082;-88
2021/12/31 08:07:53;;;;;;;3.63;2.80;;;;;;;8.47;74.89;102249.94;4879822;29;20047;-88
2021/12/31 08:10:19;;;;;;;3.55;2.90;;;;;;;8.41;75.07;102256.28;4880080;29;20033;-88
2021/12/31 08:12:45;;;;;;;3.85;2.80;;;;;;;8.16;74.89;102208.19;4879297;29;20040;-88
2021/12/31 08:15:11;;;;;;;4.40;3.22;;;;;;;7.95;75.27;102201.13;4896371;29;20062;-87
2021/12/31 08:17:37;;;;;;;3.75;3.13;;;;;;;8.32;75.28;102265.09;4878187;29;20044;-87
2021/12/31 08:20:07;;;;;;;3.72;2.75;;;;;;;8.44;75.08;102262.66;4879915;29;20040;-90
2021/12/31 08:22:36;;;;;;;3.92;2.72;;;;;;;8.30;75.39;102256.25;4880672;29;20033;-89
2021/12/31 08:25:06;;;;;;;3.88;3.00;;;;;;;8.33;75.49;102250.38;4880221;29;20028;-90
2021/12/31 08:27:31;;;;;;;4.57;3.10;;;;;;;8.49;74.30;102237.94;4895999;29;20075;-89
2021/12/31 08:29:58;;;;;;;4.05;2.90;;;;;;;8.51;73.75;102219.88;4896421;29;20504;-89
2021/12/31 08:32:25;;;;;;;3.33;2.90;;;;;;;8.25;74.15;102194.16;4879458;29;20028;-89
2021/12/31 08:34:50;;;;;;;4.38;3.20;;;;;;;8.28;74.47;102217.84;4863875;29;20035;-88
2021/12/31 08:37:20;;;;;;;3.95;2.90;;;;;;;8.24;74.82;102213.16;4895709;29;20025;-89
2021/12/31 08:39:53;;;;;;;5.20;2.97;;;;;;;8.52;74.24;102224.28;4876653;29;20518;-89
2021/12/31 08:42:21;;;;;;;4.20;2.97;;;;;;;8.47;74.19;102226.50;4893511;29;20051;-89
2021/12/31 08:44:50;;;;;;;4.45;3.10;;;;;;;8.24;74.06;102162.00;4879371;29;20518;-91
2021/12/31 08:47:20;;;;;;;3.90;3.08;;;;;;;8.57;73.47;102207.34;4877485;29;20033;-89
2021/12/31 08:49:46;;;;;;;5.28;2.97;;;;;;;8.24;73.83;102161.09;4878771;29;20113;-89
2021/12/31 08:52:49;;;;;;;4.88;3.13;;;;;;;8.70;73.79;102224.91;4896128;29;20116;-90
2021/12/31 08:55:17;;;;;;;4.07;3.00;;;;;;;8.47;74.15;102208.28;4894038;29;20526;-89
2021/12/31 08:57:43;;;;;;;4.65;3.10;;;;;;;8.52;74.22;102214.75;4879334;29;20037;-87
2021/12/31 09:00:09;;;;;;;4.57;3.08;;;;;;;8.47;74.64;102216.09;4878837;29;20037;-88
2021/12/31 09:02:40;;;;;;;4.53;3.30;;;;;;;8.60;73.74;102214.53;4860312;29;20037;-91
2021/12/31 09:05:27;;;;;;;3.85;3.10;;;;;;;8.60;74.02;102210.22;4864466;29;20066;-90
2021/12/31 09:07:55;;;;;;;4.88;3.35;;;;;;;8.25;74.24;102175.94;4888915;29;20093;-89
2021/12/31 09:11:08;;;;;;;4.72;3.30;;;;;;;8.58;74.16;102210.88;4875713;29;20032;-93
2021/12/31 09:14:16;;;;;;;4.55;2.97;;;;;;;8.68;73.74;102206.59;4895665;29;20085;-91
2021/12/31 09:16:58;;;;;;;4.05;3.10;;;;;;;8.42;73.89;102156.59;4889729;29;20033;-91
2021/12/31 09:19:42;;;;;;;4.65;3.47;;;;;;;8.45;74.22;102169.88;4863494;29;20131;-92
2021/12/31 09:22:45;;;;;;;4.90;3.33;;;;;;;8.33;75.18;102186.22;4863099;29;20029;-92
2021/12/31 09:25:11;;;;;;;5.18;3.17;;;;;;;8.07;75.14;102125.84;4861773;29;20049;-90
2021/12/31 09:27:56;;;;;;;3.58;2.97;;;;;;;8.65;73.99;102180.25;4897136;29;20016;-92
2021/12/31 09:30:31;;;;;;;6.40;3.10;;;;;;;8.54;73.98;102157.63;4866293;29;20127;-92
2021/12/31 09:33:04;;;;;;;4.10;3.00;;;;;;;8.50;73.74;102160.75;4865268;29;20051;-92
2021/12/31 09:35:32;;;;;;;5.95;3.58;;;;;;;8.62;74.09;102174.81;4882857;29;20036;-92
2021/12/31 09:38:09;;;;;;;4.93;3.33;;;;;;;8.61;74.03;102174.66;4867105;29;20044;-90
2021/12/31 09:40:37;;;;;;;;;;;;;;;8.58;74.16;102174.44;4866302;29;20093;-89
2021/12/31 09:43:11;;;;;;;4.88;3.45;;;;;;;8.53;73.96;102150.59;4877871;29;19995;-89
2021/12/31 09:45:41;;;;;;;5.10;3.75;;;;;;;8.71;73.42;102151.22;4863612;29;20123;-89
2021/12/31 09:48:11;;;;;;;4.57;3.60;;;;;;;8.63;73.81;102139.25;4879953;29;20033;-89
2021/12/31 09:50:41;;;;;;;5.95;3.90;;;;;;;8.76;73.22;102148.25;4864259;29;20037;-90
2021/12/31 09:53:17;;;;;;;6.25;3.90;;;;;;;8.35;74.89;102134.28;4871175;29;20100;-91
2021/12/31 09:55:52;;;;;;;5.75;4.05;;;;;;;8.62;73.60;102112.31;4880029;29;20460;-90
2021/12/31 09:58:21;;;;;;;6.45;4.10;;;;;;;8.48;73.66;102073.78;4876752;29;20098;-90
2021/12/31 10:00:59;;;;;;;8.95;4.75;;;;;;;8.64;73.50;102109.84;4879490;29;20384;-91
2021/12/31 10:03:56;;;;;;;10.02;5.30;;;;;;;8.62;73.88;102119.22;4868228;29;20032;-93
2021/12/31 10:06:32;;;;;;;14.20;7.05;;;;;;;8.52;73.44;102078.47;4879996;29;20036;-91
2021/12/31 10:09:12;;;;;;;16.17;7.75;;;;;;;8.70;73.20;102090.44;4875589;29;20037;-91
2021/12/31 10:11:42;;;;;;;16.33;7.88;;;;;;;8.60;72.77;102043.56;4878154;29;20108;-89
2021/12/31 10:14:54;;;;;;;14.73;7.88;;;;;;;8.86;73.02;102083.88;4870589;29;20041;-91
2021/12/31 10:17:33;;;;;;;13.77;7.30;;;;;;;8.71;73.45;102068.78;4876862;29;20488;-92
2021/12/31 10:19:59;;;;;;;16.20;7.78;;;;;;;8.49;73.51;102047.00;4879120;29;20033;-90
2021/12/31 10:22:24;;;;;;;16.75;8.15;;;;;;;8.25;73.78;102017.19;4873595;29;20200;-91
2021/12/31 10:24:58;;;;;;;15.07;8.05;;;;;;;8.89;72.57;102065.88;4876672;29;20037;-91
2021/12/31 10:27:34;;;;;;;17.05;9.07;;;;;;;8.92;72.81;102068.75;4861112;29;20045;-91
2021/12/31 10:30:11;;;;;;;19.42;9.18;;;;;;;8.82;72.20;102046.22;4861577;29;20029;-91
2021/12/31 10:32:40;;;;;;;14.85;8.23;;;;;;;8.88;72.18;102061.47;4846588;29;20036;-89
2021/12/31 10:35:11;;;;;;;16.00;8.25;;;;;;;8.92;72.73;102072.25;4866509;29;20177;-89
2021/12/31 10:37:58;;;;;;;16.45;8.60;;;;;;;8.80;72.35;102052.09;4873683;29;20040;-91
2021/12/31 10:40:36;;;;;;;14.45;8.20;;;;;;;8.82;72.41;102050.53;4880955;29;20108;-90
2021/12/31 10:43:25;;;;;;;13.02;7.63;;;;;;;9.02;72.21;102065.19;4879566;29;20021;-90
2021/12/31 10:46:02;;;;;;;15.63;7.97;;;;;;;8.91;72.70;102073.03;4885137;29;20064;-96
2021/12/31 10:48:50;;;;;;;13.40;7.15;;;;;;;8.65;73.43;102070.88;4898463;29;20037;-94
2021/12/31 10:51:19;;;;;;;12.93;7.45;;;;;;;8.81;73.19;102052.25;4895478;29;20060;-94
2021/12/31 10:53:53;;;;;;;16.77;7.97;;;;;;;8.87;71.95;102028.34;4865127;29;20035;-94
2021/12/31 10:56:21;;;;;;;14.73;8.25;;;;;;;8.86;71.83;102008.31;4883849;29;20064;-93
2021/12/31 10:59:16;;;;;;;12.40;7.28;;;;;;;9.11;71.74;102045.09;4883204;29;20035;-92
2021/12/31 11:02:06;;;;;;;14.18;7.95;;;;;;;9.06;72.18;102036.91;4867174;29;20032;-93
2021/12/31 11:05:25;;;;;;;13.32;7.15;;;;;;;9.13;72.33;102040.91;4866962;29;20029;-92
2021/12/31 11:07:59;;;;;;;15.32;8.30;;;;;;;8.92;72.69;102035.78;4890243;29;20041;-92
2021/12/31 11:10:38;;;;;;;13.18;7.68;;;;;;;8.93;72.63;102021.97;4897796;29;20032;-92
2021/12/31 11:13:30;;;;;;;12.45;7.47;;;;;;;8.77;72.74;102009.41;4867397;29;20624;-90
2021/12/31 11:16:06;;;;;;;13.05;7.32;;;;;;;8.98;72.46;102014.53;4882107;29;20041;-94
2021/12/31 11:18:45;;;;;;;13.20;7.80;;;;;;;8.98;72.30;102003.19;4899564;29;20029;-94
2021/12/31 11:21:13;;;;;;;12.90;7.60;;;;;;;8.88;72.43;101965.06;4882673;29;20123;-94
2021/12/31 11:23:55;;;;;;;12.52;7.20;;;;;;;9.07;72.37;102011.75;4882043;29;20043;-93
2021/12/31 11:26:38;;;;;;;12.25;7.38;;;;;;;8.98;72.55;101995.38;4867671;29;20037;-95
2021/12/31 11:32:48;;;;;;;12.73;7.07;;;;;;;9.12;72.31;101987.88;4904186;29;20051;-92
2021/12/31 11:35:34;;;;;;;10.30;5.97;;;;;;;9.01;72.55;101991.31;4898366;29;20067;-96
2021/12/31 11:38:22;;;;;;;11.70;6.50;;;;;;;9.05;72.45;101993.38;4851323;29;20135;-95
2021/12/31 11:41:04;;;;;;;11.73;6.60;;;;;;;8.76;72.87;101962.38;4861429;29;20500;-94
2021/12/31 11:43:42;;;;;;;11.57;6.93;;;;;;;8.72;73.15;101971.66;4884916;29;20029;-96
2021/12/31 11:46:32;;;;;;;10.23;6.50;;;;;;;8.87;73.22;101991.88;4847427;29;20037;-94
2021/12/31 11:49:36;;;;;;;12.50;6.43;;;;;;;8.89;73.24;101987.72;4881354;29;20033;-90
2021/12/31 11:52:52;;;;;;;10.93;6.55;;;;;;;8.89;73.03;101977.28;4879422;29;20040;-89
2021/12/31 11:58:40;;;;;;;12.30;6.47;;;;;;;8.51;73.17;101897.03;4879515;29;20112;-93
2021/12/31 12:01:37;;;;;;;9.85;6.55;;;;;;;8.91;73.00;101965.31;4878758;29;20468;-92
2021/12/31 12:04:37;;;;;;;10.82;6.45;;;;;;;8.87;73.32;101960.63;4875543;29;20439;-91
2021/12/31 12:10:28;;;;;;;12.57;6.97;;;;;;;8.40;73.03;101875.28;4860883;29;20048;-91
2021/12/31 12:13:28;;;;;;;10.95;7.03;;;;;;;8.76;73.88;101965.91;4853345;29;20036;-91
2021/12/31 12:15:58;;;;;;;12.45;7.03;;;;;;;8.78;73.09;101942.56;4876922;29;20084;-91
2021/12/31 12:19:10;;;;;;;11.93;6.60;;;;;;;9.05;72.54;101975.13;4876699;29;20052;-92
2021/12/31 12:21:37;;;;;;;10.30;6.18;;;;;;;8.98;72.55;101956.31;4879397;29;20080;-92
2021/12/31 12:24:14;;;;;;;11.50;6.50;;;;;;;9.19;72.26;101968.44;4875062;29;20045;-93
2021/12/31 12:26:43;;;;;;;10.77;6.50;;;;;;;8.99;72.40;101945.09;4877988;29;20071;-92
2021/12/31 12:29:26;;;;;;;9.48;6.00;;;;;;;8.66;72.89;101895.66;4859362;29;20042;-93
2021/12/31 12:35:36;;;;;;;9.77;6.07;;;;;;;8.95;72.79;101947.47;4878537;29;20097;-93
2021/12/31 12:38:11;;;;;;;10.73;6.45;;;;;;;9.04;72.93;101951.56;4877860;29;20123;-91
2021/12/31 12:40:40;;;;;;;11.15;6.50;;;;;;;9.04;72.84;101955.09;4869717;29;20575;-93
2021/12/31 12:46:30;;;;;;;9.65;5.68;;;;;;;8.75;73.38;101922.41;4878898;29;20172;-92
2021/12/31 12:49:28;;;;;;;10.90;6.00;;;;;;;9.06;72.70;101948.31;4876897;29;20088;-92
2021/12/31 12:55:17;;;;;;;10.48;6.00;;;;;;;8.86;73.39;101931.06;4878423;29;20431;-90
2021/12/31 12:57:57;;;;;;;10.07;5.90;;;;;;;9.17;72.65;101950.06;4878702;29;20029;-91
2021/12/31 13:03:55;;;;;;;8.55;5.32;;;;;;;8.99;72.54;101927.75;4876879;29;20131;-93
2021/12/31 13:06:34;;;;;;;9.50;5.80;;;;;;;9.17;72.39;101949.16;4860184;29;20034;-94
2021/12/31 13:09:18;;;;;;;10.52;5.80;;;;;;;8.99;73.13;101945.09;4862978;29;20037;-94
2021/12/31 13:12:00;;;;;;;10.43;6.50;;;;;;;8.71;72.86;101888.19;4866912;29;20124;-92
2021/12/31 13:14:38;;;;;;;9.35;6.20;;;;;;;9.06;72.71;101935.28;4880590;29;20092;-92